Terminal Aerodrome Forecast
Issued by NWS

Home | Current Version | Previous Version | Text Only | Print | Product List | Glossary On
Versions: 1 2 3 4 5 6 7 8 9 10 11 12 13 14 15 16 17 18 19 20
000
FTUS41 KPHI 260500
TAFPNE
TAF
KPNE 260537Z 2606/2706 VRB04KT P6SM OVC100
     FM261100 04011G18KT 5SM -RA OVC040
     FM261600 05010G20KT 2SM -RASN OVC007
     FM262000 03015G26KT 1SM -SN OVC004
     FM270000 33011KT 3SM -SN OVC020
     FM270400 32009KT 5SM BR BKN025=

USA.gov is the U.S. government's official web portal to all federal, state and local government web resources and services.